Airfield :
LOGIN :

Register | Disclaimer

   EN    FR    IT 

 










Legend :    VFR   Marginal VFR   IFR   Intensive IFR   Very Intensive IFR
Visi :
Ceiling :
>= 8 km
>= 3000ft
5 to 8 km
1000 to 3000 ft
1500m to 5 km
500 to 1000 ft
800 to 1500m
200 to 500 ft
< 800m
< 200 ft
Symbols :   Thunderstorms  Fog  Heavy snow  Heavy precipitations  Wind > 20 kt
SIGMETs :     Misc.  Thunderstorms  Icing  Turbulence  Mountain Waves  Volcanic Ashes







- Airport Elevation : 19 ft
- IATA code : DJE


DTTJ - Djerba Zarzis

CURRENT METAR :
  • 191330Z 28005KT 250V310 9999 FEW023TCU 19/08 Q1018 NOSIG

EXPIRED METARs :
  • 191300Z 28005KT 9999 FEW023TCU 18/08 Q1019 NOSIG
  • 191230Z 29005KT 240V32??9999 FEW023TCU 18/08 Q1019 NOSIG
  • 191200Z 30006KT 270V330 9999 FEW023TCU 19/08 Q1019 NOSIG
  • 191130Z 30008KT 9999 FEW023TCU 18/08 Q1019 NOSIG
  • 191100Z 32009KT 9999 FEW023 18/08 Q1019 NOSIG

TAF TAF DTTJ
Valid from the 19 at 12:00 until the 20 at 12:00 UTC


191103Z 1912/2012 33010KT CAVOK
TEMPO 1914/1922 27006KT
No reported NOTAMs for that airfield.



MET'MAP, your aeronautical weather chart ! - Copyright ORBIFLY December 2007 - Disclaimer

ORBIFLY MET'MAP TEAM :

Programming & Development : Alexandra Zaïnal
Concept & Development : Baudouin d'Aumeries
Co-Development & Prog : Marc-Olivier Méhu
Technical & hardware support : Manuel Goepfert

Contact : metmap@orbifly.com




SOURCES & CREDITS :

   NOAA